Time;durP1;ratioP1;P1;durP2;ratioP2;P2;SDS_P1;SDS_P2;PMS_P1;PMS_P2;Temp;Humidity;BMP_temperature;BMP_pressure;BME280_temperature;BME280_humidity;BME280_pressure;Samples;Min_cycle;Max_cycle;Signal;HPM_P1;HPM_P2
2021/05/17 00:01:19;;;;;;;3.17;1.53;;;;;;;12.75;71.28;97602.16;5107791;28;43033;-75
2021/05/17 00:03:50;;;;;;;1.10;0.87;;;;;;;12.79;71.05;97603.56;5107836;28;42689;-75
2021/05/17 00:06:18;;;;;;;1.57;0.90;;;;;;;12.81;70.67;97606.91;5107176;27;39974;-75
2021/05/17 00:08:46;;;;;;;1.63;0.90;;;;;;;12.75;71.41;97597.69;5088828;28;41923;-75
2021/05/17 00:11:16;;;;;;;1.43;0.73;;;;;;;12.73;71.76;97593.50;5105687;28;43245;-75
2021/05/17 00:13:43;;;;;;;2.07;0.90;;;;;;;12.65;71.62;97596.84;5106075;27;42730;-75
2021/05/17 00:16:11;;;;;;;2.03;0.70;;;;;;;12.61;71.77;97597.28;5088150;28;39909;-75
2021/05/17 00:18:38;;;;;;;1.70;0.60;;;;;;;12.58;71.53;97601.03;5123159;27;41836;-76
2021/05/17 00:21:08;;;;;;;1.63;0.70;;;;;;;12.48;71.30;97594.91;5104416;28;42326;-75
2021/05/17 00:23:36;;;;;;;0.87;0.60;;;;;;;12.40;71.70;97595.56;5106837;28;41294;-74
2021/05/17 00:26:12;;;;;;;1.20;0.70;;;;;;;12.29;71.67;97590.38;5106649;28;38659;-75
2021/05/17 00:28:41;;;;;;;1.30;0.60;;;;;;;12.22;72.03;97594.56;5122319;27;40752;-75
2021/05/17 00:31:08;;;;;;;0.83;0.60;;;;;;;12.16;72.07;97593.28;5107808;27;43480;-75
2021/05/17 00:33:36;;;;;;;2.43;0.80;;;;;;;12.02;72.25;97577.75;5108013;27;42037;-75
2021/05/17 00:36:09;;;;;;;1.03;0.57;;;;;;;12.08;72.33;97590.50;5106940;28;38599;-74
2021/05/17 00:38:37;;;;;;;2.27;0.40;;;;;;;12.10;71.96;97596.50;5086634;28;41526;-76
2021/05/17 00:41:05;;;;;;;1.87;0.50;;;;;;;12.14;71.99;97602.38;5086959;28;41889;-75
2021/05/17 00:43:36;;;;;;;1.30;0.60;;;;;;;12.14;71.56;97602.38;5086051;28;42219;-75
2021/05/17 00:46:06;;;;;;;1.07;0.50;;;;;;;12.15;71.82;97606.69;5073693;28;40095;-75
2021/05/17 00:48:34;;;;;;;0.93;0.80;;;;;;;12.14;71.66;97605.00;5098880;28;42663;-75
2021/05/17 00:51:02;;;;;;;1.37;0.80;;;;;;;12.15;72.02;97614.66;5109756;28;42785;-75
2021/05/17 00:53:30;;;;;;;0.90;0.50;;;;;;;12.03;71.99;97590.06;5110804;28;41336;-75
2021/05/17 00:55:57;;;;;;;0.67;0.40;;;;;;;12.06;71.73;97594.25;5109914;28;39116;-75
2021/05/17 00:58:25;;;;;;;0.97;0.50;;;;;;;12.15;71.80;97610.19;5110625;28;41639;-75
2021/05/17 01:00:53;;;;;;;1.33;0.70;;;;;;;12.16;72.27;97608.38;5111772;27;42496;-76
2021/05/17 01:03:21;;;;;;;0.70;0.53;;;;;;;12.11;72.08;97607.97;5109234;28;42043;-75
2021/05/17 01:05:59;;;;;;;0.80;0.60;;;;;;;12.15;72.58;97615.50;5110654;28;40771;-76
2021/05/17 01:08:33;;;;;;;0.43;0.43;;;;;;;12.05;72.41;97598.72;5110446;28;41966;-76
2021/05/17 01:11:04;;;;;;;1.13;0.70;;;;;;;11.88;72.86;97572.81;5110261;27;43534;-75
2021/05/17 01:13:32;;;;;;;0.70;0.70;;;;;;;12.07;72.86;97607.38;5093685;28;41295;-75
2021/05/17 01:16:00;;;;;;;1.10;0.40;;;;;;;12.04;72.87;97604.16;5109371;28;39721;-75
2021/05/17 01:18:29;;;;;;;0.97;0.70;;;;;;;12.04;73.14;97596.19;5093592;28;40772;-75
2021/05/17 01:20:57;;;;;;;1.07;0.60;;;;;;;12.02;73.06;97608.75;5109260;28;42748;-75
2021/05/17 01:23:46;;;;;;;0.60;0.50;;;;;;;12.01;73.18;97618.53;5108481;28;42168;-75
2021/05/17 01:26:15;;;;;;;1.10;0.60;;;;;;;11.94;72.97;97616.56;5109673;28;40702;-75
2021/05/17 01:28:43;;;;;;;1.57;0.70;;;;;;;11.85;73.38;97621.69;5109920;27;42408;-75
2021/05/17 01:31:11;;;;;;;0.73;0.57;;;;;;;11.87;73.16;97616.25;5108505;28;42372;-75
2021/05/17 01:33:42;;;;;;;0.90;0.50;;;;;;;11.83;73.49;97613.03;5109370;28;42909;-75
2021/05/17 01:36:11;;;;;;;0.47;0.40;;;;;;;11.77;73.40;97624.16;5143934;27;40699;-75
2021/05/17 01:38:44;;;;;;;1.43;0.70;;;;;;;11.72;73.53;97615.75;5110439;27;42112;-75
2021/05/17 01:41:13;;;;;;;0.70;0.70;;;;;;;11.64;73.94;97615.56;5092589;28;43274;-75
2021/05/17 01:43:44;;;;;;;0.50;0.40;;;;;;;11.53;73.88;97619.13;5091274;28;41275;-75
2021/05/17 01:46:14;;;;;;;0.67;0.60;;;;;;;11.52;74.50;97616.63;5110601;28;38806;-75
2021/05/17 01:48:43;;;;;;;0.60;0.60;;;;;;;11.45;74.56;97624.28;5088768;28;41660;-75
2021/05/17 01:51:12;;;;;;;1.20;0.70;;;;;;;11.37;74.68;97620.59;5090262;28;43650;-75
2021/05/17 01:53:41;;;;;;;0.60;0.60;;;;;;;11.34;74.45;97610.25;5105657;28;41942;-76
2021/05/17 01:56:11;;;;;;;0.80;0.80;;;;;;;11.42;74.59;97631.63;5108878;28;41897;-75
2021/05/17 01:58:39;;;;;;;3.27;0.70;;;;;;;11.44;74.58;97627.06;5143987;27;41835;-75
2021/05/17 02:01:10;;;;;;;1.17;0.90;;;;;;;11.46;74.59;97630.41;5091201;28;41882;-75
2021/05/17 02:03:39;;;;;;;0.70;0.70;;;;;;;11.47;74.37;97634.75;5111030;27;41944;-75
2021/05/17 02:06:09;;;;;;;0.67;0.67;;;;;;;11.46;74.50;97633.06;5109636;28;40003;-75
2021/05/17 02:08:41;;;;;;;1.10;0.80;;;;;;;11.43;74.57;97638.63;5107835;28;41699;-75
2021/05/17 02:11:11;;;;;;;1.00;1.00;;;;;;;11.40;74.50;97638.88;5109459;28;43123;-75
2021/05/17 02:13:41;;;;;;;1.23;0.60;;;;;;;11.33;74.46;97627.13;5143230;27;42195;-75
2021/05/17 02:16:12;;;;;;;1.40;0.93;;;;;;;11.34;74.46;97634.97;5109266;27;39971;-75
2021/05/17 02:18:41;;;;;;;0.93;0.80;;;;;;;11.28;75.08;97616.06;5107887;28;41506;-76
2021/05/17 02:21:09;;;;;;;0.83;0.70;;;;;;;11.47;75.01;97645.34;5108540;28;43491;-75
2021/05/17 02:23:37;;;;;;;2.33;1.00;;;;;;;11.55;74.90;97634.91;5089264;28;42416;-75
2021/05/17 02:26:06;;;;;;;0.60;0.60;;;;;;;11.64;74.54;97636.78;5105318;28;40306;-75
2021/05/17 02:28:37;;;;;;;2.23;0.80;;;;;;;11.74;74.09;97637.69;5087522;28;41011;-75
2021/05/17 02:31:05;;;;;;;2.33;0.73;;;;;;;11.79;74.21;97632.84;5087707;28;43535;-75
2021/05/17 02:33:34;;;;;;;1.87;0.70;;;;;;;11.78;73.96;97625.84;5094417;28;42812;-75
2021/05/17 02:36:04;;;;;;;1.57;1.10;;;;;;;11.83;74.07;97628.94;5090587;28;40074;-75
2021/05/17 02:38:33;;;;;;;3.10;1.13;;;;;;;11.86;74.10;97636.66;5091607;28;41149;-75
2021/05/17 02:41:00;;;;;;;1.37;0.80;;;;;;;11.86;73.60;97641.97;5107905;28;43405;-76
2021/05/17 02:43:32;;;;;;;1.57;0.80;;;;;;;11.84;73.39;97638.59;5091232;28;42310;-75
2021/05/17 02:46:15;;;;;;;0.73;0.70;;;;;;;11.81;73.53;97638.84;5106459;28;41624;-76
2021/05/17 02:48:47;;;;;;;1.40;0.80;;;;;;;11.82;73.59;97645.00;5091589;28;40914;-76
2021/05/17 02:51:15;;;;;;;1.27;0.70;;;;;;;11.78;73.24;97648.88;5108718;28;41619;-75
2021/05/17 02:54:19;;;;;;;2.03;1.27;;;;;;;11.70;73.36;97635.41;5108139;27;42126;-76
2021/05/17 02:57:26;;;;;;;0.77;0.70;;;;;;;11.67;73.39;97647.13;5109042;28;40267;-75
2021/05/17 03:00:12;;;;;;;1.03;0.70;;;;;;;11.56;73.86;97644.56;5068659;28;41781;-76
2021/05/17 03:03:01;;;;;;;1.00;0.90;;;;;;;11.48;74.18;97652.34;5054482;28;20281;-75
2021/05/17 03:05:34;;;;;;;0.80;0.80;;;;;;;11.41;74.05;97661.75;5079459;28;42164;-75
2021/05/17 03:08:05;;;;;;;1.10;0.90;;;;;;;11.32;74.05;97657.25;5095158;28;40338;-77
2021/05/17 03:10:34;;;;;;;2.30;0.90;;;;;;;11.26;73.93;97649.81;5142645;27;42408;-76
2021/05/17 03:13:08;;;;;;;1.00;0.70;;;;;;;11.38;74.40;97662.00;5108062;28;43382;-76
2021/05/17 03:15:38;;;;;;;0.83;0.70;;;;;;;11.43;73.88;97660.66;5107937;28;41180;-76
2021/05/17 03:18:07;;;;;;;0.60;0.60;;;;;;;11.48;73.68;97668.25;5109873;27;40651;-75
2021/05/17 03:20:35;;;;;;;1.60;0.77;;;;;;;11.50;73.47;97669.78;5109664;27;41447;-75
2021/05/17 03:23:08;;;;;;;1.77;0.80;;;;;;;11.53;73.40;97673.97;5107042;28;41701;-76
2021/05/17 03:25:37;;;;;;;0.70;0.70;;;;;;;11.52;73.46;97669.63;5108599;28;42109;-76
2021/05/17 03:28:05;;;;;;;0.80;0.80;;;;;;;11.53;73.61;97672.16;5108107;27;40581;-75
2021/05/17 03:30:32;;;;;;;0.60;0.60;;;;;;;11.53;73.34;97676.63;5108459;28;40867;-75
2021/05/17 03:33:00;;;;;;;1.30;0.73;;;;;;;11.60;73.48;97683.09;5106900;27;42422;-76
2021/05/17 03:35:28;;;;;;;1.13;0.70;;;;;;;11.66;73.26;97681.72;5108337;27;42928;-76
2021/05/17 03:37:55;;;;;;;1.27;0.77;;;;;;;11.75;73.12;97678.28;5107191;28;40441;-75
2021/05/17 03:40:22;;;;;;;0.60;0.60;;;;;;;11.79;73.09;97677.94;5107086;28;41701;-75
2021/05/17 03:42:50;;;;;;;2.23;0.90;;;;;;;11.85;73.29;97682.72;5106755;28;43450;-76
2021/05/17 03:45:18;;;;;;;0.83;0.83;;;;;;;11.90;72.91;97684.09;5108174;28;42090;-75
2021/05/17 03:47:45;;;;;;;1.40;0.60;;;;;;;11.96;72.74;97684.44;5105833;28;39936;-76
2021/05/17 03:50:14;;;;;;;1.20;0.83;;;;;;;12.03;72.54;97682.06;5087798;28;42464;-76
2021/05/17 03:52:41;;;;;;;1.60;1.00;;;;;;;12.06;72.35;97692.44;5088843;28;43290;-75
2021/05/17 03:55:10;;;;;;;0.90;0.80;;;;;;;12.10;72.48;97688.53;5104626;28;42295;-76
2021/05/17 03:57:38;;;;;;;1.97;1.20;;;;;;;12.18;72.46;97696.66;5109180;27;39636;-76
2021/05/17 04:00:08;;;;;;;2.03;1.00;;;;;;;12.22;72.39;97698.94;5086307;28;40638;-75
2021/05/17 04:02:42;;;;;;;0.93;0.90;;;;;;;12.30;72.43;97698.25;5104137;28;42968;-76
2021/05/17 04:05:23;;;;;;;3.67;0.93;;;;;;;12.27;72.08;97692.34;5108970;27;41992;-75
2021/05/17 04:13:25;;;;;;;1.20;0.90;;;;;;;12.32;72.22;97700.75;5107139;28;42677;-76
2021/05/17 04:15:54;;;;;;;2.50;1.00;;;;;;;12.29;72.81;97701.03;5109346;27;42190;-76
2021/05/17 04:18:22;;;;;;;1.97;1.13;;;;;;;12.32;72.84;97706.91;5107954;28;40639;-76
2021/05/17 04:20:50;;;;;;;1.03;0.80;;;;;;;12.37;72.70;97701.19;5112305;27;42650;-76
2021/05/17 04:23:20;;;;;;;1.80;1.07;;;;;;;12.42;72.83;97706.94;5110070;28;42537;-76
2021/05/17 04:25:47;;;;;;;3.20;1.07;;;;;;;12.48;72.38;97701.94;5111368;28;42217;-76
2021/05/17 04:28:15;;;;;;;1.27;1.00;;;;;;;12.57;72.63;97703.78;5093069;28;40706;-76
2021/05/17 04:30:42;;;;;;;3.73;0.97;;;;;;;12.67;72.34;97706.44;5110004;28;41744;-75
2021/05/17 04:33:09;;;;;;;1.30;0.80;;;;;;;12.73;71.98;97707.72;5107876;28;42656;-77
2021/05/17 04:35:37;;;;;;;1.90;0.80;;;;;;;12.84;71.69;97718.22;5111942;27;42988;-76
2021/05/17 04:38:04;;;;;;;1.87;1.00;;;;;;;12.83;71.46;97708.56;5109550;27;39914;-76
2021/05/17 04:40:32;;;;;;;2.00;1.00;;;;;;;12.86;71.38;97714.44;5108374;28;40615;-76
2021/05/17 04:43:00;;;;;;;2.10;1.03;;;;;;;12.89;71.41;97726.59;5110007;27;42468;-75
2021/05/17 04:45:27;;;;;;;1.47;1.00;;;;;;;12.96;71.16;97722.44;5110984;27;42942;-76
2021/05/17 04:47:55;;;;;;;2.10;1.10;;;;;;;13.03;71.23;97731.53;5108598;28;40413;-76
2021/05/17 04:50:23;;;;;;;1.50;1.07;;;;;;;13.05;70.98;97721.59;5108814;28;40785;-78
2021/05/17 04:52:50;;;;;;;1.23;0.90;;;;;;;13.19;70.48;97729.19;5111643;27;43182;-76
2021/05/17 04:55:17;;;;;;;1.53;0.90;;;;;;;13.24;70.17;97726.94;5110945;28;42296;-76
2021/05/17 04:57:45;;;;;;;2.60;1.07;;;;;;;13.34;70.01;97731.44;5092299;28;38759;-76
2021/05/17 05:00:14;;;;;;;2.00;0.90;;;;;;;13.43;70.21;97735.91;5090341;28;41740;-76
2021/05/17 05:02:41;;;;;;;1.30;0.90;;;;;;;13.52;69.41;97729.72;5090604;28;43014;-77
2021/05/17 05:05:10;;;;;;;1.93;0.90;;;;;;;13.62;68.87;97735.88;5110093;28;42218;-76
2021/05/17 05:07:37;;;;;;;2.90;1.37;;;;;;;13.70;68.74;97728.03;5093750;28;40327;-76
2021/05/17 05:10:05;;;;;;;3.30;0.80;;;;;;;13.90;68.12;97740.31;5109011;28;41439;-77
2021/05/17 05:12:34;;;;;;;2.70;1.50;;;;;;;14.06;68.22;97736.22;5109197;28;43251;-76
2021/05/17 05:15:02;;;;;;;1.53;0.83;;;;;;;14.14;68.18;97746.97;5110922;27;42184;-77
2021/05/17 05:17:29;;;;;;;1.90;0.93;;;;;;;14.17;67.48;97746.69;5111378;27;41625;-78
2021/05/17 05:19:56;;;;;;;1.83;0.90;;;;;;;14.28;67.28;97736.69;5109760;28;40594;-76
2021/05/17 05:22:24;;;;;;;2.37;1.00;;;;;;;14.48;67.04;97737.47;5109552;28;43648;-76
2021/05/17 05:24:53;;;;;;;1.97;0.90;;;;;;;14.56;66.36;97737.59;5111613;27;42254;-77
2021/05/17 05:27:24;;;;;;;1.27;0.73;;;;;;;14.32;65.45;97703.47;5109339;28;40931;-77
2021/05/17 05:30:03;;;;;;;3.67;0.80;;;;;;;14.71;65.61;97752.06;5106863;27;41752;-77
2021/05/17 05:32:34;;;;;;;1.93;1.17;;;;;;;14.72;65.08;97748.41;5093105;28;41581;-76
2021/05/17 05:35:01;;;;;;;1.23;0.73;;;;;;;14.56;66.51;97745.56;5109885;28;42388;-77
2021/05/17 05:37:28;;;;;;;1.00;0.70;;;;;;;14.41;66.99;97739.06;5091821;28;39782;-76
2021/05/17 05:39:55;;;;;;;2.63;0.70;;;;;;;14.38;67.23;97749.97;5111175;27;41712;-75
2021/05/17 05:42:24;;;;;;;1.40;0.70;;;;;;;14.42;67.27;97767.38;5111015;27;43611;-76
2021/05/17 05:44:51;;;;;;;1.00;0.67;;;;;;;14.40;67.40;97765.84;5091922;28;42315;-77
2021/05/17 05:47:18;;;;;;;1.20;0.70;;;;;;;14.37;66.91;97766.94;5108752;28;39933;-77
2021/05/17 05:49:49;;;;;;;2.20;0.90;;;;;;;14.33;67.42;97773.56;5109347;28;40915;-76
2021/05/17 05:52:17;;;;;;;1.67;0.80;;;;;;;14.15;67.25;97761.97;5108651;28;42713;-76
2021/05/17 05:54:45;;;;;;;2.93;0.70;;;;;;;14.05;68.42;97769.13;5109079;28;43211;-76
2021/05/17 05:57:14;;;;;;;1.00;0.67;;;;;;;13.94;68.82;97773.66;5109387;28;40278;-76
2021/05/17 05:59:42;;;;;;;2.37;0.70;;;;;;;13.85;69.62;97781.63;5110110;27;41670;-75
2021/05/17 06:02:09;;;;;;;1.10;1.00;;;;;;;13.76;69.92;97785.16;5092686;28;43284;-76
2021/05/17 06:04:36;;;;;;;2.40;0.80;;;;;;;13.71;70.21;97787.41;5111135;27;42105;-75
2021/05/17 06:07:04;;;;;;;0.97;0.90;;;;;;;13.63;70.50;97780.13;5101341;27;40910;-74
2021/05/17 06:09:32;;;;;;;1.07;0.80;;;;;;;13.68;71.07;97788.53;5109414;27;41719;-74
2021/05/17 06:12:00;;;;;;;1.57;0.80;;;;;;;13.67;71.12;97792.16;5107180;28;43541;-75
2021/05/17 06:14:27;;;;;;;0.80;0.70;;;;;;;13.61;71.19;97792.72;5110421;27;42218;-74
2021/05/17 06:16:55;;;;;;;0.70;0.60;;;;;;;13.56;71.74;97795.81;5107110;28;39022;-75
2021/05/17 06:19:23;;;;;;;1.47;0.60;;;;;;;13.51;71.43;97799.88;5109341;27;42257;-75
2021/05/17 06:21:51;;;;;;;2.87;0.80;;;;;;;13.54;71.34;97796.94;5108874;27;43524;-75
2021/05/17 06:24:21;;;;;;;0.60;0.60;;;;;;;13.63;71.21;97796.09;5110095;27;42359;-75
2021/05/17 06:26:48;;;;;;;1.57;0.80;;;;;;;13.79;71.18;97796.34;5110285;27;40509;-74
2021/05/17 06:29:16;;;;;;;1.10;0.70;;;;;;;14.01;71.01;97797.84;5104934;28;42792;-75
2021/05/17 06:31:46;;;;;;;1.80;1.10;;;;;;;14.26;70.38;97799.06;5108527;28;43466;-74
2021/05/17 06:34:14;;;;;;;1.13;0.90;;;;;;;14.58;70.30;97799.56;5108177;28;42655;-74
2021/05/17 06:36:41;;;;;;;2.47;1.20;;;;;;;14.74;69.62;97789.09;5107715;28;40039;-75
2021/05/17 06:39:10;;;;;;;1.43;0.80;;;;;;;14.83;69.11;97794.53;5108981;27;42353;-76
2021/05/17 06:41:38;;;;;;;2.83;1.00;;;;;;;15.07;67.97;97810.81;5108251;27;43682;-76
2021/05/17 06:44:06;;;;;;;2.63;1.80;;;;;;;15.31;67.21;97813.75;5110168;27;41933;-76
2021/05/17 06:46:34;;;;;;;3.57;1.30;;;;;;;15.66;66.80;97812.94;5108459;28;40628;-76
2021/05/17 06:49:01;;;;;;;1.97;1.20;;;;;;;16.04;66.77;97808.25;5108699;28;40413;-76
2021/05/17 06:51:29;;;;;;;1.77;1.20;;;;;;;16.33;65.64;97805.25;5092080;28;42782;-76
2021/05/17 06:53:58;;;;;;;2.00;0.90;;;;;;;16.23;63.86;97820.56;5070334;28;41076;-73
2021/05/17 06:56:29;;;;;;;2.07;0.60;;;;;;;16.06;62.91;97828.47;5088690;28;40890;-75
2021/05/17 06:58:58;;;;;;;1.83;0.70;;;;;;;15.82;63.39;97831.75;5094952;28;41443;-74
2021/05/17 07:01:27;;;;;;;1.20;0.73;;;;;;;15.58;63.50;97830.72;5091516;28;41985;-74
2021/05/17 07:03:56;;;;;;;0.50;0.50;;;;;;;15.37;63.76;97826.47;5107712;28;42169;-73
2021/05/17 07:06:24;;;;;;;0.53;0.40;;;;;;;15.21;64.73;97831.63;5110247;27;40744;-74
2021/05/17 07:11:45;;;;;;;1.80;0.53;;;;;;;15.35;65.46;97825.78;5109461;27;43153;-74
2021/05/17 07:14:14;;;;;;;1.27;0.60;;;;;;;15.48;64.72;97829.91;5108978;27;41940;-75
2021/05/17 07:16:41;;;;;;;1.27;0.63;;;;;;;15.53;64.40;97843.63;5108777;28;39777;-75
2021/05/17 07:19:09;;;;;;;1.53;0.57;;;;;;;15.55;64.53;97839.88;5108253;27;41799;-75
2021/05/17 07:24:22;;;;;;;1.80;0.53;;;;;;;15.97;62.97;97848.06;5107634;28;42904;-74
2021/05/17 07:26:50;;;;;;;0.97;0.70;;;;;;;16.46;62.30;97854.63;5107658;28;40555;-76
2021/05/17 07:29:19;;;;;;;1.10;0.60;;;;;;;17.09;61.00;97857.00;5108908;27;42262;-76
2021/05/17 07:31:47;;;;;;;2.57;1.60;;;;;;;17.43;59.65;97856.94;5108283;28;41957;-75
2021/05/17 07:34:14;;;;;;;0.70;0.70;;;;;;;17.43;59.20;97853.44;5107362;28;42185;-74
2021/05/17 07:36:42;;;;;;;1.23;0.83;;;;;;;17.47;59.19;97852.94;5107596;28;40666;-75
2021/05/17 07:39:09;;;;;;;1.87;0.63;;;;;;;17.56;57.29;97870.69;5106677;27;42023;-75
2021/05/17 07:41:37;;;;;;;2.00;0.50;;;;;;;17.55;57.69;97869.03;5105800;28;43085;-74
2021/05/17 07:44:05;;;;;;;1.50;0.50;;;;;;;17.36;58.33;97861.28;5104809;28;43166;-74
2021/05/17 07:46:33;;;;;;;1.43;0.57;;;;;;;16.93;59.12;97858.78;5105698;28;40799;-75
2021/05/17 07:49:12;;;;;;;2.03;0.60;;;;;;;16.49;60.43;97858.81;5088439;28;40630;-73
2021/05/17 07:51:42;;;;;;;2.13;0.80;;;;;;;16.04;62.09;97849.16;5105650;27;42963;-73
2021/05/17 07:54:09;;;;;;;1.00;0.60;;;;;;;15.80;63.66;97855.13;5106499;28;41585;-74
2021/05/17 07:56:37;;;;;;;1.67;0.80;;;;;;;15.63;64.62;97849.78;5109631;27;40677;-74
2021/05/17 07:59:05;;;;;;;1.73;0.80;;;;;;;15.51;65.21;97861.63;5107019;28;42485;-75
2021/05/17 08:01:33;;;;;;;2.33;0.60;;;;;;;15.25;65.68;97859.69;5108922;27;42735;-74
2021/05/17 08:04:00;;;;;;;0.80;0.50;;;;;;;14.90;65.80;97862.25;5089755;28;41202;-75
2021/05/17 08:06:28;;;;;;;1.10;0.47;;;;;;;14.66;66.73;97871.59;5109122;27;39962;-74
2021/05/17 08:08:55;;;;;;;1.43;0.60;;;;;;;14.37;67.20;97854.81;5106684;28;42489;-76
2021/05/17 08:11:22;;;;;;;1.10;0.70;;;;;;;14.36;68.07;97890.41;5108490;28;43309;-75
2021/05/17 08:13:50;;;;;;;2.63;0.70;;;;;;;14.30;68.04;97869.69;5111100;28;41082;-76
2021/05/17 08:16:17;;;;;;;2.93;0.90;;;;;;;14.34;68.99;97877.25;5111888;27;40611;-76
2021/05/17 08:18:45;;;;;;;3.00;0.70;;;;;;;14.33;67.78;97874.75;5110691;28;42967;-76
2021/05/17 08:21:12;;;;;;;1.63;0.63;;;;;;;14.33;68.09;97856.94;5109907;27;43525;-75
2021/05/17 08:23:39;;;;;;;0.70;0.50;;;;;;;14.63;68.59;97876.38;5109095;27;42453;-75
2021/05/17 08:26:08;;;;;;;0.67;0.63;;;;;;;14.23;67.72;97829.47;5108278;27;39878;-76
2021/05/17 08:28:35;;;;;;;3.87;0.80;;;;;;;14.42;68.23;97879.25;5090024;28;40445;-75
2021/05/17 08:31:03;;;;;;;2.20;0.80;;;;;;;14.25;68.45;97882.59;5090271;28;41976;-75
2021/05/17 08:33:50;;;;;;;2.77;0.90;;;;;;;14.13;68.73;97883.72;5107763;28;43756;-75
2021/05/17 08:36:36;;;;;;;2.30;0.70;;;;;;;14.06;69.20;97879.97;5105989;28;42209;-75
2021/05/17 08:39:21;;;;;;;2.07;0.60;;;;;;;14.15;69.68;97895.09;5107478;28;42508;-75
2021/05/17 08:42:07;;;;;;;3.80;1.00;;;;;;;14.07;69.17;97889.63;5136459;27;43288;-78
2021/05/17 08:44:53;;;;;;;2.63;1.07;;;;;;;13.93;69.72;97883.75;5106519;28;42741;-76
2021/05/17 08:47:20;;;;;;;1.83;0.80;;;;;;;13.96;70.97;97883.47;5105517;28;40634;-76
2021/05/17 08:49:48;;;;;;;1.43;0.70;;;;;;;14.00;70.61;97879.53;5107703;27;43145;-76
2021/05/17 08:52:16;;;;;;;1.27;0.70;;;;;;;14.13;71.01;97884.56;5106334;28;42947;-75
2021/05/17 08:54:43;;;;;;;1.10;0.70;;;;;;;14.42;70.40;97878.41;5106404;28;42104;-76
2021/05/17 08:57:10;;;;;;;1.47;1.10;;;;;;;15.35;69.54;97873.78;5089246;28;40203;-76
2021/05/17 08:59:38;;;;;;;4.13;1.00;;;;;;;16.36;68.01;97845.03;5107284;28;41605;-75
2021/05/17 09:02:05;;;;;;;3.83;1.10;;;;;;;17.91;65.02;97887.53;5106415;28;41854;-75
2021/05/17 09:04:32;;;;;;;1.40;1.00;;;;;;;18.80;62.22;97890.19;5108220;27;42717;-76
2021/05/17 09:07:00;;;;;;;2.67;1.20;;;;;;;19.44;60.51;97892.81;5111007;27;39979;-75
2021/05/17 09:09:29;;;;;;;2.47;0.90;;;;;;;19.81;59.24;97892.16;5110540;28;41758;-76
2021/05/17 09:11:58;;;;;;;1.63;0.90;;;;;;;20.33;58.17;97911.94;5109288;28;42573;-75
2021/05/17 09:14:27;;;;;;;1.60;0.80;;;;;;;20.64;57.03;97894.91;5109544;28;42050;-75
2021/05/17 09:16:57;;;;;;;1.97;0.93;;;;;;;20.75;55.99;97913.28;5108839;28;39727;-76
2021/05/17 09:19:27;;;;;;;2.80;1.37;;;;;;;21.32;52.78;97915.41;5110470;27;41541;-75
2021/05/17 09:22:12;;;;;;;2.20;1.10;;;;;;;21.06;52.89;97908.59;5108648;28;42499;-77
2021/05/17 09:24:42;;;;;;;1.50;1.00;;;;;;;20.72;53.09;97913.66;5092905;28;41927;-77
2021/05/17 09:27:11;;;;;;;1.83;0.90;;;;;;;20.28;52.04;97903.56;5110146;27;41941;-74
2021/05/17 09:29:41;;;;;;;4.03;1.17;;;;;;;20.78;53.54;97892.22;5110139;28;42134;-74
2021/05/17 09:32:30;;;;;;;2.07;1.17;;;;;;;21.32;51.11;97918.09;5109278;28;42594;-75
2021/05/17 09:35:17;;;;;;;1.00;0.70;;;;;;;20.91;50.11;97912.28;5108364;28;41863;-75
2021/05/17 09:37:48;;;;;;;2.03;0.90;;;;;;;20.92;49.69;97917.47;5110119;27;39844;-75
2021/05/17 09:40:20;;;;;;;1.63;0.80;;;;;;;21.12;48.94;97920.47;5110804;27;41638;-75
2021/05/17 09:42:59;;;;;;;1.63;0.90;;;;;;;23.18;46.95;97930.59;5110311;27;43453;-76
2021/05/17 09:45:30;;;;;;;2.03;0.90;;;;;;;24.43;43.72;97952.78;5090247;28;42858;-74
2021/05/17 09:47:58;;;;;;;1.77;0.93;;;;;;;23.86;43.56;97956.75;5089503;28;39174;-77
2021/05/17 09:50:25;;;;;;;2.20;0.87;;;;;;;23.38;44.54;97961.25;5091691;28;42120;-76
2021/05/17 09:52:53;;;;;;;1.63;0.90;;;;;;;24.51;43.88;97938.22;5108722;28;43300;-76
2021/05/17 09:55:20;;;;;;;6.03;1.03;;;;;;;24.26;41.56;97973.97;5107949;28;42302;-75
2021/05/17 09:57:48;;;;;;;3.03;1.03;;;;;;;22.86;43.46;97986.03;5108975;28;39208;-77
2021/05/17 10:00:18;;;;;;;1.47;0.87;;;;;;;21.55;46.11;97967.31;5110450;27;41635;-75
2021/05/17 10:02:49;;;;;;;1.80;0.80;;;;;;;20.53;49.64;97932.97;5110560;27;42758;-75
2021/05/17 10:05:22;;;;;;;1.70;0.90;;;;;;;21.14;51.06;97924.63;5110473;27;42143;-75
2021/05/17 10:07:51;;;;;;;0.93;0.63;;;;;;;22.19;50.07;97902.75;5110806;27;41216;-76
2021/05/17 10:10:22;;;;;;;1.53;0.77;;;;;;;23.69;48.49;97933.81;5109572;28;40677;-76
2021/05/17 10:12:50;;;;;;;1.37;0.70;;;;;;;23.81;46.80;97943.00;5107748;28;43373;-76
2021/05/17 10:15:19;;;;;;;1.00;0.60;;;;;;;23.16;44.84;97960.50;5090488;28;42424;-76
2021/05/17 10:17:47;;;;;;;0.93;0.80;;;;;;;22.51;46.38;97948.09;5108964;28;41478;-76
2021/05/17 10:20:18;;;;;;;1.83;0.80;;;;;;;21.84;47.59;97934.09;5108181;28;42461;-78
2021/05/17 10:22:46;;;;;;;2.50;1.10;;;;;;;21.30;48.03;97944.38;5091927;28;42467;-76
2021/05/17 10:25:21;;;;;;;1.47;0.90;;;;;;;20.87;48.44;97927.13;5108805;28;41325;-78
2021/05/17 10:27:51;;;;;;;1.97;0.70;;;;;;;20.97;48.10;97942.00;5109976;27;40656;-76
2021/05/17 10:30:22;;;;;;;1.37;0.70;;;;;;;21.17;48.24;97935.03;5108012;28;42530;-77
2021/05/17 10:32:55;;;;;;;1.23;0.60;;;;;;;21.99;48.03;97934.09;5090694;28;42959;-76
2021/05/17 10:35:25;;;;;;;1.43;0.80;;;;;;;22.09;47.47;97935.44;5108662;28;41341;-75
2021/05/17 10:38:18;;;;;;;1.07;0.50;;;;;;;21.83;47.35;97935.94;5110121;27;39591;-77
2021/05/17 10:40:47;;;;;;;1.60;1.50;;;;;;;21.98;47.76;97916.22;5107652;28;41683;-77
2021/05/17 10:43:39;;;;;;;2.30;0.80;;;;;;;22.10;46.93;97941.69;5109329;27;42438;-77
2021/05/17 10:49:37;;;;;;;1.20;0.60;;;;;;;22.02;45.95;97933.69;5108265;28;40095;-77
2021/05/17 10:52:24;;;;;;;2.00;1.00;;;;;;;21.85;43.57;97950.09;5109868;27;42301;-75
2021/05/17 10:55:06;;;;;;;2.33;0.80;;;;;;;21.75;44.68;97938.78;5108490;28;41929;-75
2021/05/17 10:57:38;;;;;;;2.00;0.77;;;;;;;21.49;44.68;97933.88;5108090;28;42721;-76
2021/05/17 11:00:23;;;;;;;2.23;0.90;;;;;;;21.34;45.10;97951.06;5108619;28;39927;-75
2021/05/17 11:03:10;;;;;;;0.40;0.40;;;;;;;21.15;44.99;97942.47;5109095;27;41999;-77
2021/05/17 11:05:38;;;;;;;2.77;0.80;;;;;;;20.84;43.48;97959.78;5108073;28;41846;-76
2021/05/17 11:08:07;;;;;;;1.67;0.70;;;;;;;20.70;44.32;97953.34;5108722;27;42167;-78
2021/05/17 11:10:37;;;;;;;1.93;0.50;;;;;;;20.87;44.31;97944.13;5108356;28;40730;-77
2021/05/17 11:13:09;;;;;;;0.73;0.50;;;;;;;21.48;43.46;97947.53;5107549;28;41753;-76
2021/05/17 11:15:54;;;;;;;0.93;0.50;;;;;;;22.43;41.37;97964.44;5108345;28;41716;-76
2021/05/17 11:18:33;;;;;;;0.90;0.57;;;;;;;23.19;38.16;97997.94;5109853;27;42348;-79
2021/05/17 11:21:04;;;;;;;2.03;0.50;;;;;;;23.67;38.65;97984.53;5108550;27;39886;-79
2021/05/17 11:23:49;;;;;;;0.53;0.40;;;;;;;23.64;38.40;97980.34;5108314;28;43910;-77
2021/05/17 11:26:18;;;;;;;2.53;0.50;;;;;;;23.91;38.45;97980.50;5087709;28;41658;-75
2021/05/17 11:29:08;;;;;;;3.17;0.90;;;;;;;23.98;36.08;97998.41;5087570;28;41877;-77
2021/05/17 11:31:46;;;;;;;1.97;0.73;;;;;;;24.02;35.33;98009.66;5099896;28;40547;-76
2021/05/17 11:34:22;;;;;;;1.70;0.70;;;;;;;23.86;34.81;98010.03;5090318;28;40677;-80
2021/05/17 11:36:53;;;;;;;1.60;0.80;;;;;;;23.36;36.31;97994.94;5111099;27;42382;-75
2021/05/17 11:39:22;;;;;;;1.37;0.60;;;;;;;23.00;38.36;97971.59;5108464;28;42137;-78
2021/05/17 11:42:03;;;;;;;1.57;0.70;;;;;;;22.92;38.82;97979.84;5108156;27;40287;-77
2021/05/17 11:44:33;;;;;;;1.83;0.60;;;;;;;23.01;38.23;97981.38;5108493;27;41578;-75
2021/05/17 11:47:04;;;;;;;2.63;0.60;;;;;;;23.01;37.90;97984.06;5108396;27;42512;-76
2021/05/17 11:49:33;;;;;;;1.40;0.50;;;;;;;23.56;37.92;97983.25;5108587;28;41366;-77
2021/05/17 11:52:04;;;;;;;1.87;0.57;;;;;;;25.08;35.86;97983.69;5089068;28;40416;-78
2021/05/17 11:54:37;;;;;;;2.67;0.60;;;;;;;26.15;33.85;97995.97;5108636;28;42255;-75
2021/05/17 11:57:07;;;;;;;0.67;0.37;;;;;;;27.27;32.32;98017.84;5106648;28;42555;-77
2021/05/17 11:59:36;;;;;;;0.53;0.50;;;;;;;27.72;31.69;98020.34;5090855;28;41018;-75
2021/05/17 12:02:05;;;;;;;0.50;0.30;;;;;;;27.92;31.00;98018.25;5107757;27;40950;-77
2021/05/17 12:04:34;;;;;;;0.93;0.57;;;;;;;28.45;30.01;98026.63;5109399;27;42210;-75